sensor_id;sensor_type;location;lat;lon;timestamp;pressure;altitude;pressure_sealevel;temperature;humidity
78168;BME280;67410;42.698;23.378;2023-04-03T00:00:16;94978.28;;;4.95;72.71
78168;BME280;67410;42.698;23.378;2023-04-03T00:02:42;94987.53;;;4.97;73.18
78168;BME280;67410;42.698;23.378;2023-04-03T00:05:08;94990.00;;;5.05;72.45
78168;BME280;67410;42.698;23.378;2023-04-03T00:07:35;94981.31;;;4.92;72.94
78168;BME280;67410;42.698;23.378;2023-04-03T00:10:01;94983.13;;;4.98;73.42
78168;BME280;67410;42.698;23.378;2023-04-03T00:12:27;94973.78;;;5.17;73.71
78168;BME280;67410;42.698;23.378;2023-04-03T00:14:53;94965.97;;;5.17;73.74
78168;BME280;67410;42.698;23.378;2023-04-03T00:17:19;94942.19;;;4.92;74.33
78168;BME280;67410;42.698;23.378;2023-04-03T00:19:45;94960.75;;;5.17;74.38
78168;BME280;67410;42.698;23.378;2023-04-03T00:22:11;94953.72;;;5.17;74.92
78168;BME280;67410;42.698;23.378;2023-04-03T00:24:38;94952.91;;;5.17;72.30
78168;BME280;67410;42.698;23.378;2023-04-03T00:27:04;94953.66;;;5.04;72.91
78168;BME280;67410;42.698;23.378;2023-04-03T00:29:30;94964.78;;;4.78;73.20
78168;BME280;67410;42.698;23.378;2023-04-03T00:31:57;94956.50;;;4.68;73.77
78168;BME280;67410;42.698;23.378;2023-04-03T00:34:23;94972.31;;;4.66;74.73
78168;BME280;67410;42.698;23.378;2023-04-03T00:36:49;94963.56;;;4.74;74.20
78168;BME280;67410;42.698;23.378;2023-04-03T00:39:15;94966.34;;;4.72;75.45
78168;BME280;67410;42.698;23.378;2023-04-03T00:41:41;94972.31;;;4.66;75.55
78168;BME280;67410;42.698;23.378;2023-04-03T00:44:22;94970.28;;;4.55;74.79
78168;BME280;67410;42.698;23.378;2023-04-03T00:46:48;94970.59;;;4.46;74.73
78168;BME280;67410;42.698;23.378;2023-04-03T00:49:14;94973.75;;;4.69;75.62
78168;BME280;67410;42.698;23.378;2023-04-03T00:51:41;94972.56;;;4.71;75.17
78168;BME280;67410;42.698;23.378;2023-04-03T00:54:08;94973.31;;;4.59;75.53
78168;BME280;67410;42.698;23.378;2023-04-03T00:56:35;94967.91;;;4.60;75.21
78168;BME280;67410;42.698;23.378;2023-04-03T00:59:10;94972.53;;;4.65;75.64
78168;BME280;67410;42.698;23.378;2023-04-03T01:04:44;94977.09;;;4.56;75.69
78168;BME280;67410;42.698;23.378;2023-04-03T01:09:39;94975.19;;;4.37;75.89
78168;BME280;67410;42.698;23.378;2023-04-03T01:12:24;94974.25;;;4.23;75.56
78168;BME280;67410;42.698;23.378;2023-04-03T01:14:54;94977.69;;;4.24;75.93
78168;BME280;67410;42.698;23.378;2023-04-03T01:25:33;94973.38;;;4.37;76.51
78168;BME280;67410;42.698;23.378;2023-04-03T01:27:59;94978.59;;;4.37;77.02
78168;BME280;67410;42.698;23.378;2023-04-03T01:30:32;94982.59;;;4.40;76.69
78168;BME280;67410;42.698;23.378;2023-04-03T01:32:59;94980.56;;;4.07;75.49
78168;BME280;67410;42.698;23.378;2023-04-03T01:35:25;94975.75;;;4.11;75.71
78168;BME280;67410;42.698;23.378;2023-04-03T01:37:51;94970.84;;;3.95;76.84
78168;BME280;67410;42.698;23.378;2023-04-03T01:40:17;94975.19;;;4.09;77.00
78168;BME280;67410;42.698;23.378;2023-04-03T01:42:43;94982.59;;;4.12;77.22
78168;BME280;67410;42.698;23.378;2023-04-03T01:45:10;94975.13;;;4.02;77.85
78168;BME280;67410;42.698;23.378;2023-04-03T01:47:36;94978.66;;;3.95;78.02
78168;BME280;67410;42.698;23.378;2023-04-03T01:50:02;94973.81;;;3.92;78.04
78168;BME280;67410;42.698;23.378;2023-04-03T01:52:29;94983.19;;;4.07;78.07
78168;BME280;67410;42.698;23.378;2023-04-03T01:54:56;94980.59;;;4.14;78.25
78168;BME280;67410;42.698;23.378;2023-04-03T01:57:22;94980.22;;;4.17;77.89
78168;BME280;67410;42.698;23.378;2023-04-03T01:59:48;94986.25;;;4.18;78.19
78168;BME280;67410;42.698;23.378;2023-04-03T02:02:14;94985.63;;;4.16;77.65
78168;BME280;67410;42.698;23.378;2023-04-03T02:04:41;94993.44;;;4.16;77.35
78168;BME280;67410;42.698;23.378;2023-04-03T02:07:07;94986.78;;;4.06;77.13
78168;BME280;67410;42.698;23.378;2023-04-03T02:09:33;94993.22;;;3.89;77.31
78168;BME280;67410;42.698;23.378;2023-04-03T02:11:59;94996.81;;;3.67;78.18
78168;BME280;67410;42.698;23.378;2023-04-03T02:14:25;94998.25;;;3.91;78.80
78168;BME280;67410;42.698;23.378;2023-04-03T02:16:53;94984.88;;;3.72;78.85
78168;BME280;67410;42.698;23.378;2023-04-03T02:19:19;94990.13;;;4.00;78.29
78168;BME280;67410;42.698;23.378;2023-04-03T02:21:45;94987.94;;;4.04;78.23
78168;BME280;67410;42.698;23.378;2023-04-03T02:24:12;94985.66;;;3.94;77.63
78168;BME280;67410;42.698;23.378;2023-04-03T02:26:38;94975.38;;;3.65;76.02
78168;BME280;67410;42.698;23.378;2023-04-03T02:29:04;94976.91;;;3.59;76.58
78168;BME280;67410;42.698;23.378;2023-04-03T02:31:30;94971.16;;;3.43;79.10
78168;BME280;67410;42.698;23.378;2023-04-03T02:33:56;94953.56;;;3.23;80.53
78168;BME280;67410;42.698;23.378;2023-04-03T02:36:22;94960.13;;;3.40;79.18
78168;BME280;67410;42.698;23.378;2023-04-03T02:38:49;94959.66;;;3.52;78.72
78168;BME280;67410;42.698;23.378;2023-04-03T02:41:15;94961.66;;;3.35;78.27
78168;BME280;67410;42.698;23.378;2023-04-03T02:43:41;94962.47;;;3.35;79.28
78168;BME280;67410;42.698;23.378;2023-04-03T02:46:08;94964.59;;;3.25;79.57
78168;BME280;67410;42.698;23.378;2023-04-03T02:48:34;94964.41;;;3.12;80.51
78168;BME280;67410;42.698;23.378;2023-04-03T02:51:01;94965.22;;;3.13;79.60
78168;BME280;67410;42.698;23.378;2023-04-03T02:53:27;94963.19;;;3.29;79.81
78168;BME280;67410;42.698;23.378;2023-04-03T02:55:53;94961.34;;;3.23;79.84
78168;BME280;67410;42.698;23.378;2023-04-03T02:58:19;94945.13;;;3.21;79.74
78168;BME280;67410;42.698;23.378;2023-04-03T03:00:45;94954.38;;;3.45;79.15
78168;BME280;67410;42.698;23.378;2023-04-03T03:03:11;94956.16;;;3.45;79.29
78168;BME280;67410;42.698;23.378;2023-04-03T03:05:39;94954.13;;;3.40;78.02
78168;BME280;67410;42.698;23.378;2023-04-03T03:08:05;94949.44;;;3.14;79.71
78168;BME280;67410;42.698;23.378;2023-04-03T03:10:31;94952.13;;;3.21;80.35
78168;BME280;67410;42.698;23.378;2023-04-03T03:12:57;94954.41;;;3.30;80.10
78168;BME280;67410;42.698;23.378;2023-04-03T03:15:23;94956.97;;;3.24;79.66
78168;BME280;67410;42.698;23.378;2023-04-03T03:17:50;94931.31;;;3.21;78.47
78168;BME280;67410;42.698;23.378;2023-04-03T03:20:16;94938.13;;;3.22;79.18
78168;BME280;67410;42.698;23.378;2023-04-03T03:22:42;94943.44;;;3.14;79.86
78168;BME280;67410;42.698;23.378;2023-04-03T03:25:09;94940.50;;;3.02;79.48
78168;BME280;67410;42.698;23.378;2023-04-03T03:27:35;94949.66;;;2.98;79.80
78168;BME280;67410;42.698;23.378;2023-04-03T03:30:01;94945.09;;;2.85;81.52
78168;BME280;67410;42.698;23.378;2023-04-03T03:32:27;94943.31;;;2.86;79.63
78168;BME280;67410;42.698;23.378;2023-04-03T03:34:53;94945.19;;;2.77;79.18
78168;BME280;67410;42.698;23.378;2023-04-03T03:37:19;94950.34;;;2.70;80.69
78168;BME280;67410;42.698;23.378;2023-04-03T03:39:46;94952.53;;;2.73;79.89
78168;BME280;67410;42.698;23.378;2023-04-03T03:42:12;94944.56;;;2.75;80.00
78168;BME280;67410;42.698;23.378;2023-04-03T03:44:38;94956.78;;;2.60;80.78
78168;BME280;67410;42.698;23.378;2023-04-03T03:47:04;94952.50;;;2.67;80.69
78168;BME280;67410;42.698;23.378;2023-04-03T03:49:31;94950.75;;;2.74;79.24
78168;BME280;67410;42.698;23.378;2023-04-03T03:51:58;94945.72;;;2.87;79.38
78168;BME280;67410;42.698;23.378;2023-04-03T03:54:24;94950.97;;;2.72;79.74
78168;BME280;67410;42.698;23.378;2023-04-03T03:56:50;94962.34;;;2.71;80.08
78168;BME280;67410;42.698;23.378;2023-04-03T03:59:17;94962.53;;;2.70;80.75
78168;BME280;67410;42.698;23.378;2023-04-03T04:01:43;94949.78;;;2.75;80.99
78168;BME280;67410;42.698;23.378;2023-04-03T04:04:09;94925.97;;;2.71;80.30
78168;BME280;67410;42.698;23.378;2023-04-03T04:06:35;94940.94;;;2.69;79.09
78168;BME280;67410;42.698;23.378;2023-04-03T04:09:02;94947.53;;;2.87;79.05
78168;BME280;67410;42.698;23.378;2023-04-03T04:11:28;94931.25;;;2.63;79.61
78168;BME280;67410;42.698;23.378;2023-04-03T04:13:54;94941.72;;;2.70;79.68
78168;BME280;67410;42.698;23.378;2023-04-03T04:16:20;94939.66;;;2.65;79.13
78168;BME280;67410;42.698;23.378;2023-04-03T15:49:45;94662.06;;;7.16;97.52
78168;BME280;67410;42.698;23.378;2023-04-03T15:52:11;94656.41;;;7.19;97.56
78168;BME280;67410;42.698;23.378;2023-04-03T15:54:38;94666.81;;;7.26;96.76
78168;BME280;67410;42.698;23.378;2023-04-03T15:57:04;94657.09;;;7.33;96.41
78168;BME280;67410;42.698;23.378;2023-04-03T15:59:30;94661.94;;;7.29;96.03
78168;BME280;67410;42.698;23.378;2023-04-03T16:01:58;94664.31;;;7.37;95.66
78168;BME280;67410;42.698;23.378;2023-04-03T16:04:26;94658.03;;;7.38;95.38
78168;BME280;67410;42.698;23.378;2023-04-03T16:06:52;94663.28;;;7.38;95.66
78168;BME280;67410;42.698;23.378;2023-04-03T16:09:19;94658.59;;;7.40;95.21
78168;BME280;67410;42.698;23.378;2023-04-03T16:11:45;94661.97;;;7.47;95.52
78168;BME280;67410;42.698;23.378;2023-04-03T16:14:11;94655.94;;;7.47;95.66
78168;BME280;67410;42.698;23.378;2023-04-03T16:16:38;94646.47;;;7.46;95.03
78168;BME280;67410;42.698;23.378;2023-04-03T16:19:05;94652.88;;;7.50;94.99
78168;BME280;67410;42.698;23.378;2023-04-03T16:21:32;94640.22;;;7.47;94.50
78168;BME280;67410;42.698;23.378;2023-04-03T16:23:59;94638.47;;;7.41;94.66
78168;BME280;67410;42.698;23.378;2023-04-03T16:26:25;94626.47;;;7.33;95.00
78168;BME280;67410;42.698;23.378;2023-04-03T16:28:52;94618.41;;;7.35;95.28
78168;BME280;67410;42.698;23.378;2023-04-03T16:31:19;94616.84;;;7.27;95.05
78168;BME280;67410;42.698;23.378;2023-04-03T16:33:46;94619.63;;;7.32;95.26
78168;BME280;67410;42.698;23.378;2023-04-03T16:36:13;94618.97;;;7.37;95.13
78168;BME280;67410;42.698;23.378;2023-04-03T16:38:39;94612.19;;;7.29;94.78
78168;BME280;67410;42.698;23.378;2023-04-03T16:41:05;94602.75;;;7.28;95.46
78168;BME280;67410;42.698;23.378;2023-04-03T16:43:32;94582.38;;;7.30;94.61
78168;BME280;67410;42.698;23.378;2023-04-03T16:45:58;94575.13;;;7.32;94.61
78168;BME280;67410;42.698;23.378;2023-04-03T16:48:25;94562.38;;;7.36;94.73
78168;BME280;67410;42.698;23.378;2023-04-03T16:50:51;94549.38;;;7.29;93.93
78168;BME280;67410;42.698;23.378;2023-04-03T16:53:23;94547.81;;;7.40;94.69
78168;BME280;67410;42.698;23.378;2023-04-03T16:55:50;94539.41;;;7.38;94.26
78168;BME280;67410;42.698;23.378;2023-04-03T16:58:16;94527.97;;;7.32;93.99
78168;BME280;67410;42.698;23.378;2023-04-03T17:00:43;94529.44;;;7.28;94.00
78168;BME280;67410;42.698;23.378;2023-04-03T17:03:09;94534.09;;;7.26;93.34
78168;BME280;67410;42.698;23.378;2023-04-03T17:05:36;94527.75;;;7.34;93.80
78168;BME280;67410;42.698;23.378;2023-04-03T17:08:02;94527.41;;;7.30;93.60
78168;BME280;67410;42.698;23.378;2023-04-03T17:10:28;94520.25;;;7.19;93.88
78168;BME280;67410;42.698;23.378;2023-04-03T17:12:56;94512.19;;;7.21;93.24
78168;BME280;67410;42.698;23.378;2023-04-03T17:15:22;94514.22;;;7.19;93.96
78168;BME280;67410;42.698;23.378;2023-04-03T17:17:51;94516.41;;;7.22;92.96
78168;BME280;67410;42.698;23.378;2023-04-03T17:20:18;94517.06;;;7.17;94.31
78168;BME280;67410;42.698;23.378;2023-04-03T17:22:44;94514.59;;;7.22;93.15
78168;BME280;67410;42.698;23.378;2023-04-03T17:25:10;94511.94;;;7.10;93.07
78168;BME280;67410;42.698;23.378;2023-04-03T17:27:37;94522.66;;;7.21;92.94
78168;BME280;67410;42.698;23.378;2023-04-03T17:30:04;94512.25;;;7.14;93.17
78168;BME280;67410;42.698;23.378;2023-04-03T17:32:30;94509.16;;;7.05;93.82
78168;BME280;67410;42.698;23.378;2023-04-03T17:34:56;94507.78;;;7.03;94.35
78168;BME280;67410;42.698;23.378;2023-04-03T17:37:23;94503.81;;;7.12;94.30
78168;BME280;67410;42.698;23.378;2023-04-03T17:39:49;94493.34;;;7.12;93.46
78168;BME280;67410;42.698;23.378;2023-04-03T17:42:15;94487.41;;;7.05;93.13
78168;BME280;67410;42.698;23.378;2023-04-03T17:44:41;94490.97;;;7.10;93.42
78168;BME280;67410;42.698;23.378;2023-04-03T17:47:07;94485.81;;;7.04;93.39
78168;BME280;67410;42.698;23.378;2023-04-03T17:49:33;94497.56;;;7.13;93.13
78168;BME280;67410;42.698;23.378;2023-04-03T17:51:59;94490.63;;;7.07;93.25
78168;BME280;67410;42.698;23.378;2023-04-03T17:54:26;94486.97;;;7.08;93.70
78168;BME280;67410;42.698;23.378;2023-04-03T17:56:52;94489.16;;;7.11;93.36
78168;BME280;67410;42.698;23.378;2023-04-03T17:59:18;94482.88;;;7.12;92.53
78168;BME280;67410;42.698;23.378;2023-04-03T18:01:45;94494.75;;;7.14;93.19
78168;BME280;67410;42.698;23.378;2023-04-03T18:04:13;94489.72;;;7.13;92.98
78168;BME280;67410;42.698;23.378;2023-04-03T18:06:42;94486.03;;;7.02;93.42
78168;BME280;67410;42.698;23.378;2023-04-03T18:09:35;94488.59;;;7.09;92.82
78168;BME280;67410;42.698;23.378;2023-04-03T18:12:02;94489.16;;;7.11;93.68
78168;BME280;67410;42.698;23.378;2023-04-03T18:14:29;94477.53;;;7.07;92.90
78168;BME280;67410;42.698;23.378;2023-04-03T18:16:55;94458.19;;;6.90;93.88
78168;BME280;67410;42.698;23.378;2023-04-03T18:19:22;94467.66;;;7.09;92.67
78168;BME280;67410;42.698;23.378;2023-04-03T18:21:51;94473.47;;;7.11;93.71
78168;BME280;67410;42.698;23.378;2023-04-03T18:24:20;94473.00;;;7.14;93.01
78168;BME280;67410;42.698;23.378;2023-04-03T18:26:50;94475.72;;;7.07;93.70
78168;BME280;67410;42.698;23.378;2023-04-03T18:29:19;94464.06;;;7.03;94.08
78168;BME280;67410;42.698;23.378;2023-04-03T18:31:48;94471.94;;;7.03;93.77
78168;BME280;67410;42.698;23.378;2023-04-03T18:34:15;94465.25;;;7.07;93.76
78168;BME280;67410;42.698;23.378;2023-04-03T18:36:41;94476.28;;;7.09;93.96
78168;BME280;67410;42.698;23.378;2023-04-03T18:39:08;94461.53;;;6.97;94.22
78168;BME280;67410;42.698;23.378;2023-04-03T18:41:36;94459.13;;;6.95;93.71
78168;BME280;67410;42.698;23.378;2023-04-03T18:44:04;94457.69;;;6.99;94.00
78168;BME280;67410;42.698;23.378;2023-04-03T18:46:32;94457.19;;;7.09;93.74
78168;BME280;67410;42.698;23.378;2023-04-03T18:48:59;94448.22;;;6.98;93.91
78168;BME280;67410;42.698;23.378;2023-04-03T18:51:25;94460.81;;;7.08;94.07
78168;BME280;67410;42.698;23.378;2023-04-03T18:53:52;94446.41;;;6.99;93.80
78168;BME280;67410;42.698;23.378;2023-04-03T18:56:18;94445.41;;;7.00;93.77
78168;BME280;67410;42.698;23.378;2023-04-03T18:58:44;94451.22;;;7.02;94.44
78168;BME280;67410;42.698;23.378;2023-04-03T19:01:10;94450.19;;;7.03;93.81
78168;BME280;67410;42.698;23.378;2023-04-03T19:03:36;94441.75;;;7.01;93.23
78168;BME280;67410;42.698;23.378;2023-04-03T19:06:03;94438.25;;;6.89;93.77
78168;BME280;67410;42.698;23.378;2023-04-03T19:08:30;94447.50;;;6.91;94.83
78168;BME280;67410;42.698;23.378;2023-04-03T19:10:56;94425.91;;;6.96;94.50
78168;BME280;67410;42.698;23.378;2023-04-03T19:13:22;94402.44;;;6.89;94.45
78168;BME280;67410;42.698;23.378;2023-04-03T19:15:49;94413.69;;;6.90;94.89
78168;BME280;67410;42.698;23.378;2023-04-03T19:18:17;94404.19;;;6.95;95.15
78168;BME280;67410;42.698;23.378;2023-04-03T19:20:43;94396.72;;;6.81;94.88
78168;BME280;67410;42.698;23.378;2023-04-03T19:23:09;94417.19;;;7.02;94.96
78168;BME280;67410;42.698;23.378;2023-04-03T19:25:37;94404.19;;;6.95;94.22
78168;BME280;67410;42.698;23.378;2023-04-03T19:28:03;94398.81;;;6.90;95.23
78168;BME280;67410;42.698;23.378;2023-04-03T19:30:29;94399.16;;;6.94;94.13
78168;BME280;67410;42.698;23.378;2023-04-03T19:32:56;94393.09;;;6.82;94.50
78168;BME280;67410;42.698;23.378;2023-04-03T19:35:23;94402.53;;;6.83;95.38
78168;BME280;67410;42.698;23.378;2023-04-03T19:37:50;94411.97;;;6.84;94.37
78168;BME280;67410;42.698;23.378;2023-04-03T19:40:18;94399.03;;;6.70;95.24
78168;BME280;67410;42.698;23.378;2023-04-03T19:42:44;94398.16;;;6.76;95.01
78168;BME280;67410;42.698;23.378;2023-04-03T19:45:11;94385.25;;;6.82;95.26
78168;BME280;67410;42.698;23.378;2023-04-03T19:47:39;94377.28;;;6.88;94.57
78168;BME280;67410;42.698;23.378;2023-04-03T19:50:06;94396.34;;;6.77;95.08
78168;BME280;67410;42.698;23.378;2023-04-03T19:52:32;94386.09;;;6.75;95.45
78168;BME280;67410;42.698;23.378;2023-04-03T19:54:58;94390.91;;;6.78;95.42
78168;BME280;67410;42.698;23.378;2023-04-03T19:57:26;94386.25;;;6.81;95.36
78168;BME280;67410;42.698;23.378;2023-04-03T19:59:53;94390.53;;;6.75;96.02
78168;BME280;67410;42.698;23.378;2023-04-03T20:02:19;94393.53;;;6.78;95.77
78168;BME280;67410;42.698;23.378;2023-04-03T20:04:46;94383.94;;;6.72;95.40
78168;BME280;67410;42.698;23.378;2023-04-03T20:07:12;94382.13;;;6.73;95.56
78168;BME280;67410;42.698;23.378;2023-04-03T20:09:39;94381.16;;;6.67;95.15
78168;BME280;67410;42.698;23.378;2023-04-03T20:12:05;94374.69;;;6.70;95.44
78168;BME280;67410;42.698;23.378;2023-04-03T20:14:34;94390.31;;;6.76;95.15
78168;BME280;67410;42.698;23.378;2023-04-03T20:17:02;94396.50;;;6.64;95.67
78168;BME280;67410;42.698;23.378;2023-04-03T20:19:29;94390.47;;;6.63;96.49
78168;BME280;67410;42.698;23.378;2023-04-03T20:21:58;94377.16;;;6.65;95.91
78168;BME280;67410;42.698;23.378;2023-04-03T20:24:25;94361.97;;;6.73;96.02
78168;BME280;67410;42.698;23.378;2023-04-03T20:26:54;94370.28;;;6.70;96.38
78168;BME280;67410;42.698;23.378;2023-04-03T20:29:25;94358.56;;;6.73;96.08
78168;BME280;67410;42.698;23.378;2023-04-03T20:31:52;94356.19;;;6.71;95.76
78168;BME280;67410;42.698;23.378;2023-04-03T20:34:19;94364.97;;;6.77;95.10
78168;BME280;67410;42.698;23.378;2023-04-03T20:36:47;94357.91;;;6.77;95.04
78168;BME280;67410;42.698;23.378;2023-04-03T20:39:13;94357.03;;;6.65;95.25
78168;BME280;67410;42.698;23.378;2023-04-03T20:41:39;94358.63;;;6.66;95.63
78168;BME280;67410;42.698;23.378;2023-04-03T20:44:05;94355.97;;;6.73;96.07
78168;BME280;67410;42.698;23.378;2023-04-03T20:46:32;94354.28;;;6.78;95.69
78168;BME280;67410;42.698;23.378;2023-04-03T20:48:58;94350.72;;;6.73;95.70
78168;BME280;67410;42.698;23.378;2023-04-03T20:51:25;94344.13;;;6.70;95.69
78168;BME280;67410;42.698;23.378;2023-04-03T20:53:53;94347.59;;;6.83;96.06
78168;BME280;67410;42.698;23.378;2023-04-03T20:56:19;94349.63;;;6.81;95.39
78168;BME280;67410;42.698;23.378;2023-04-03T20:58:45;94352.25;;;6.81;96.36
78168;BME280;67410;42.698;23.378;2023-04-03T21:01:18;94367.72;;;6.82;95.63
78168;BME280;67410;42.698;23.378;2023-04-03T21:03:45;94370.72;;;6.67;95.67
78168;BME280;67410;42.698;23.378;2023-04-03T21:21:19;94338.25;;;7.05;95.83
78168;BME280;67410;42.698;23.378;2023-04-03T21:23:49;94343.84;;;7.20;95.15
78168;BME280;67410;42.698;23.378;2023-04-03T21:26:16;94331.66;;;7.14;94.81
78168;BME280;67410;42.698;23.378;2023-04-03T21:28:43;94313.25;;;7.21;94.64
78168;BME280;67410;42.698;23.378;2023-04-03T21:31:09;94303.25;;;7.29;94.67
78168;BME280;67410;42.698;23.378;2023-04-03T21:33:36;94302.13;;;7.37;94.21
78168;BME280;67410;42.698;23.378;2023-04-03T21:36:03;94306.00;;;7.34;93.62
78168;BME280;67410;42.698;23.378;2023-04-03T21:38:29;94304.19;;;7.46;93.82
78168;BME280;67410;42.698;23.378;2023-04-03T21:40:57;94295.53;;;7.34;93.84
78168;BME280;67410;42.698;23.378;2023-04-03T21:43:25;94287.09;;;7.32;94.17
78168;BME280;67410;42.698;23.378;2023-04-03T21:45:56;94283.22;;;7.35;93.89
78168;BME280;67410;42.698;23.378;2023-04-03T21:48:26;94274.13;;;7.49;93.93
78168;BME280;67410;42.698;23.378;2023-04-03T21:51:03;94288.03;;;7.61;93.21
78168;BME280;67410;42.698;23.378;2023-04-03T21:53:30;94286.53;;;7.42;93.61
78168;BME280;67410;42.698;23.378;2023-04-03T21:55:59;94284.47;;;7.32;94.43
78168;BME280;67410;42.698;23.378;2023-04-03T21:58:31;94281.28;;;7.30;94.63
78168;BME280;67410;42.698;23.378;2023-04-03T22:01:09;94271.44;;;7.14;95.08
78168;BME280;67410;42.698;23.378;2023-04-03T22:03:36;94265.66;;;7.24;95.57
78168;BME280;67410;42.698;23.378;2023-04-03T22:06:04;94266.69;;;7.23;94.98
78168;BME280;67410;42.698;23.378;2023-04-03T22:08:30;94272.50;;;7.25;94.77
78168;BME280;67410;42.698;23.378;2023-04-03T22:11:07;94263.72;;;7.07;95.30
78168;BME280;67410;42.698;23.378;2023-04-03T22:13:34;94270.66;;;7.13;94.58
78168;BME280;67410;42.698;23.378;2023-04-03T22:16:00;94275.31;;;7.11;95.33
78168;BME280;67410;42.698;23.378;2023-04-03T22:18:28;94262.00;;;7.13;94.69
78168;BME280;67410;42.698;23.378;2023-04-03T22:20:55;94264.53;;;7.20;93.92
78168;BME280;67410;42.698;23.378;2023-04-03T22:23:21;94262.03;;;7.25;94.44
78168;BME280;67410;42.698;23.378;2023-04-03T22:26:01;94260.69;;;7.34;93.66
78168;BME280;67410;42.698;23.378;2023-04-03T22:28:33;94262.13;;;7.18;93.72
78168;BME280;67410;42.698;23.378;2023-04-03T22:31:01;94257.56;;;7.02;93.77
78168;BME280;67410;42.698;23.378;2023-04-03T22:33:29;94258.44;;;6.96;94.22
78168;BME280;67410;42.698;23.378;2023-04-03T22:35:55;94252.00;;;7.22;93.79
78168;BME280;67410;42.698;23.378;2023-04-03T22:38:21;94252.81;;;7.22;93.97
78168;BME280;67410;42.698;23.378;2023-04-03T22:40:58;94242.56;;;7.21;92.74
78168;BME280;67410;42.698;23.378;2023-04-03T22:43:26;94223.22;;;7.22;94.18
78168;BME280;67410;42.698;23.378;2023-04-03T22:45:53;94210.22;;;7.15;93.36
78168;BME280;67410;42.698;23.378;2023-04-03T22:48:21;94219.66;;;7.16;93.61
78168;BME280;67410;42.698;23.378;2023-04-03T22:50:47;94229.56;;;7.14;94.37
78168;BME280;67410;42.698;23.378;2023-04-03T22:53:13;94233.78;;;7.15;93.88
78168;BME280;67410;42.698;23.378;2023-04-03T22:55:40;94234.47;;;7.10;94.19
78168;BME280;67410;42.698;23.378;2023-04-03T22:58:06;94232.75;;;7.16;94.34
78168;BME280;67410;42.698;23.378;2023-04-03T23:00:34;94232.31;;;7.19;93.86
78168;BME280;67410;42.698;23.378;2023-04-03T23:03:01;94224.47;;;7.19;93.14
78168;BME280;67410;42.698;23.378;2023-04-03T23:05:28;94217.63;;;7.18;93.20
78168;BME280;67410;42.698;23.378;2023-04-03T23:07:54;94225.56;;;7.11;93.12
78168;BME280;67410;42.698;23.378;2023-04-03T23:10:20;94225.34;;;7.01;94.46
78168;BME280;67410;42.698;23.378;2023-04-03T23:12:47;94227.16;;;7.01;94.83
78168;BME280;67410;42.698;23.378;2023-04-03T23:15:13;94229.00;;;7.12;94.21
78168;BME280;67410;42.698;23.378;2023-04-03T23:17:40;94231.88;;;7.10;94.87
78168;BME280;67410;42.698;23.378;2023-04-03T23:20:07;94222.50;;;7.14;93.74
78168;BME280;67410;42.698;23.378;2023-04-03T23:22:34;94221.41;;;7.10;93.74
